sensor_id;sensor_type;location;lat;lon;timestamp;pressure;altitude;pressure_sealevel;temperature;humidity
23363;BME280;11853;48.080;11.960;2023-01-27T00:00:19;94784.38;;;1.33;100.00
23363;BME280;11853;48.080;11.960;2023-01-27T00:02:44;94794.47;;;1.25;100.00
23363;BME280;11853;48.080;11.960;2023-01-27T00:05:12;94790.28;;;1.23;100.00
23363;BME280;11853;48.080;11.960;2023-01-27T00:07:38;94788.22;;;1.28;100.00
23363;BME280;11853;48.080;11.960;2023-01-27T00:10:12;94787.78;;;1.21;100.00
23363;BME280;11853;48.080;11.960;2023-01-27T00:12:38;94787.28;;;1.29;100.00
23363;BME280;11853;48.080;11.960;2023-01-27T00:15:22;94787.84;;;1.20;100.00
23363;BME280;11853;48.080;11.960;2023-01-27T00:17:47;94793.28;;;1.17;100.00
23363;BME280;11853;48.080;11.960;2023-01-27T00:20:13;94786.47;;;1.14;100.00
23363;BME280;11853;48.080;11.960;2023-01-27T00:22:59;94796.00;;;1.15;100.00
23363;BME280;11853;48.080;11.960;2023-01-27T00:25:43;94781.38;;;1.12;100.00
23363;BME280;11853;48.080;11.960;2023-01-27T00:28:15;94786.38;;;1.16;100.00
23363;BME280;11853;48.080;11.960;2023-01-27T00:30:51;94779.94;;;1.21;100.00
23363;BME280;11853;48.080;11.960;2023-01-27T00:33:17;94783.94;;;1.27;100.00
23363;BME280;11853;48.080;11.960;2023-01-27T00:36:03;94784.75;;;1.27;100.00
23363;BME280;11853;48.080;11.960;2023-01-27T00:38:32;94776.28;;;1.24;100.00
23363;BME280;11853;48.080;11.960;2023-01-27T00:40:58;94769.34;;;1.10;100.00
23363;BME280;11853;48.080;11.960;2023-01-27T00:43:42;94782.88;;;1.02;100.00
23363;BME280;11853;48.080;11.960;2023-01-27T00:46:08;94779.66;;;1.11;100.00
23363;BME280;11853;48.080;11.960;2023-01-27T00:48:34;94767.56;;;1.10;100.00
23363;BME280;11853;48.080;11.960;2023-01-27T00:51:00;94766.28;;;1.03;100.00
23363;BME280;11853;48.080;11.960;2023-01-27T00:53:26;94775.63;;;0.93;100.00
23363;BME280;11853;48.080;11.960;2023-01-27T00:55:52;94773.19;;;0.90;100.00
23363;BME280;11853;48.080;11.960;2023-01-27T00:58:18;94773.91;;;1.06;100.00
23363;BME280;11853;48.080;11.960;2023-01-27T01:00:44;94778.84;;;1.11;100.00
23363;BME280;11853;48.080;11.960;2023-01-27T01:03:10;94791.53;;;1.03;100.00
23363;BME280;11853;48.080;11.960;2023-01-27T01:05:35;94792.09;;;1.08;100.00
23363;BME280;11853;48.080;11.960;2023-01-27T01:08:01;94785.69;;;0.99;100.00
23363;BME280;11853;48.080;11.960;2023-01-27T01:10:27;94793.88;;;1.07;100.00
23363;BME280;11853;48.080;11.960;2023-01-27T01:12:52;94787.34;;;1.15;100.00
23363;BME280;11853;48.080;11.960;2023-01-27T01:15:18;94795.72;;;1.05;100.00
23363;BME280;11853;48.080;11.960;2023-01-27T01:17:44;94796.69;;;1.04;100.00
23363;BME280;11853;48.080;11.960;2023-01-27T01:20:10;94795.38;;;0.97;100.00
23363;BME280;11853;48.080;11.960;2023-01-27T01:22:35;94797.44;;;1.06;100.00
23363;BME280;11853;48.080;11.960;2023-01-27T01:25:02;94797.63;;;1.03;100.00
23363;BME280;11853;48.080;11.960;2023-01-27T01:27:27;94790.91;;;0.99;100.00
23363;BME280;11853;48.080;11.960;2023-01-27T01:29:53;94792.09;;;1.08;100.00
23363;BME280;11853;48.080;11.960;2023-01-27T01:32:19;94788.94;;;1.03;100.00
23363;BME280;11853;48.080;11.960;2023-01-27T01:34:45;94791.34;;;1.06;100.00
23363;BME280;11853;48.080;11.960;2023-01-27T01:37:10;94795.94;;;1.02;100.00
23363;BME280;11853;48.080;11.960;2023-01-27T01:39:36;94786.63;;;0.98;100.00
23363;BME280;11853;48.080;11.960;2023-01-27T01:42:02;94782.31;;;0.97;100.00
23363;BME280;11853;48.080;11.960;2023-01-27T01:44:30;94781.19;;;1.01;100.00
23363;BME280;11853;48.080;11.960;2023-01-27T01:46:56;94782.81;;;0.89;100.00
23363;BME280;11853;48.080;11.960;2023-01-27T01:49:26;94773.56;;;0.98;100.00
23363;BME280;11853;48.080;11.960;2023-01-27T01:52:01;94771.44;;;0.90;100.00
23363;BME280;11853;48.080;11.960;2023-01-27T01:54:34;94776.56;;;0.92;100.00
23363;BME280;11853;48.080;11.960;2023-01-27T01:57:10;94785.44;;;0.89;100.00
23363;BME280;11853;48.080;11.960;2023-01-27T01:59:44;94780.00;;;0.93;100.00
23363;BME280;11853;48.080;11.960;2023-01-27T02:02:12;94777.94;;;0.98;100.00
23363;BME280;11853;48.080;11.960;2023-01-27T02:04:46;94766.47;;;1.00;100.00
23363;BME280;11853;48.080;11.960;2023-01-27T02:09:43;94762.16;;;0.99;100.00
23363;BME280;11853;48.080;11.960;2023-01-27T02:12:08;94757.59;;;1.03;100.00
23363;BME280;11853;48.080;11.960;2023-01-27T02:14:34;94764.19;;;1.08;100.00
23363;BME280;11853;48.080;11.960;2023-01-27T02:17:01;94770.94;;;0.98;100.00
23363;BME280;11853;48.080;11.960;2023-01-27T02:22:23;94761.38;;;1.11;100.00
23363;BME280;11853;48.080;11.960;2023-01-27T02:24:55;94761.22;;;1.15;100.00
23363;BME280;11853;48.080;11.960;2023-01-27T02:27:24;94761.84;;;1.18;100.00
23363;BME280;11853;48.080;11.960;2023-01-27T02:29:50;94763.72;;;1.16;100.00
23363;BME280;11853;48.080;11.960;2023-01-27T02:32:25;94758.78;;;1.11;100.00
23363;BME280;11853;48.080;11.960;2023-01-27T02:34:53;94761.78;;;1.05;100.00
23363;BME280;11853;48.080;11.960;2023-01-27T02:37:20;94767.47;;;1.12;100.00
23363;BME280;11853;48.080;11.960;2023-01-27T02:39:48;94770.09;;;1.12;100.00
23363;BME280;11853;48.080;11.960;2023-01-27T02:42:17;94761.34;;;1.26;100.00
23363;BME280;11853;48.080;11.960;2023-01-27T02:44:43;94758.84;;;1.24;100.00
23363;BME280;11853;48.080;11.960;2023-01-27T02:47:09;94766.38;;;1.29;100.00
23363;BME280;11853;48.080;11.960;2023-01-27T02:49:35;94760.97;;;1.32;100.00
23363;BME280;11853;48.080;11.960;2023-01-27T02:52:00;94755.28;;;1.25;100.00
23363;BME280;11853;48.080;11.960;2023-01-27T02:54:27;94738.06;;;1.08;100.00
23363;BME280;11853;48.080;11.960;2023-01-27T02:56:54;94749.75;;;1.03;100.00
23363;BME280;11853;48.080;11.960;2023-01-27T02:59:20;94764.38;;;1.05;100.00
23363;BME280;11853;48.080;11.960;2023-01-27T03:01:46;94756.91;;;1.13;100.00
23363;BME280;11853;48.080;11.960;2023-01-27T03:04:11;94748.31;;;1.11;100.00
23363;BME280;11853;48.080;11.960;2023-01-27T03:06:37;94762.56;;;1.20;100.00
23363;BME280;11853;48.080;11.960;2023-01-27T03:09:06;94769.56;;;1.20;100.00
23363;BME280;11853;48.080;11.960;2023-01-27T03:11:32;94759.13;;;1.20;100.00
23363;BME280;11853;48.080;11.960;2023-01-27T03:14:16;94760.81;;;1.21;100.00
23363;BME280;11853;48.080;11.960;2023-01-27T03:16:41;94754.22;;;1.15;100.00
23363;BME280;11853;48.080;11.960;2023-01-27T03:19:26;94752.31;;;1.17;100.00
23363;BME280;11853;48.080;11.960;2023-01-27T03:21:52;94753.22;;;1.03;100.00
23363;BME280;11853;48.080;11.960;2023-01-27T03:24:19;94747.44;;;0.98;100.00
23363;BME280;11853;48.080;11.960;2023-01-27T03:26:45;94754.53;;;0.96;100.00
23363;BME280;11853;48.080;11.960;2023-01-27T03:29:11;94743.25;;;0.96;100.00
23363;BME280;11853;48.080;11.960;2023-01-27T03:31:56;94752.69;;;0.98;100.00
23363;BME280;11853;48.080;11.960;2023-01-27T03:34:21;94752.75;;;0.97;100.00
23363;BME280;11853;48.080;11.960;2023-01-27T03:36:47;94751.44;;;1.04;100.00
23363;BME280;11853;48.080;11.960;2023-01-27T03:39:31;94745.47;;;1.02;100.00
23363;BME280;11853;48.080;11.960;2023-01-27T03:42:15;94741.63;;;1.07;100.00
23363;BME280;11853;48.080;11.960;2023-01-27T03:44:59;94739.97;;;1.06;100.00
23363;BME280;11853;48.080;11.960;2023-01-27T03:47:43;94739.97;;;1.06;100.00
23363;BME280;11853;48.080;11.960;2023-01-27T03:50:09;94750.78;;;1.15;100.00
23363;BME280;11853;48.080;11.960;2023-01-27T03:52:44;94742.25;;;1.11;100.00
23363;BME280;11853;48.080;11.960;2023-01-27T03:55:28;94741.97;;;1.16;100.00
23363;BME280;11853;48.080;11.960;2023-01-27T03:57:55;94744.16;;;1.09;100.00
23363;BME280;11853;48.080;11.960;2023-01-27T04:00:22;94742.38;;;1.09;100.00
23363;BME280;11853;48.080;11.960;2023-01-27T04:02:48;94744.25;;;1.07;100.00
23363;BME280;11853;48.080;11.960;2023-01-27T04:05:32;94750.78;;;1.15;100.00
23363;BME280;11853;48.080;11.960;2023-01-27T04:08:16;94748.31;;;1.11;100.00
23363;BME280;11853;48.080;11.960;2023-01-27T04:10:41;94749.81;;;1.16;100.00
23363;BME280;11853;48.080;11.960;2023-01-27T04:13:27;94748.31;;;1.11;100.00
23363;BME280;11853;48.080;11.960;2023-01-27T04:15:53;94749.19;;;1.12;100.00
23363;BME280;11853;48.080;11.960;2023-01-27T04:18:19;94750.31;;;1.08;100.00
23363;BME280;11853;48.080;11.960;2023-01-27T04:20:45;94746.22;;;1.04;100.00
23363;BME280;11853;48.080;11.960;2023-01-27T04:23:10;94745.19;;;1.06;100.00
23363;BME280;11853;48.080;11.960;2023-01-27T04:25:36;94742.44;;;0.95;100.00
23363;BME280;11853;48.080;11.960;2023-01-27T04:28:02;94742.44;;;0.95;100.00
23363;BME280;11853;48.080;11.960;2023-01-27T04:30:28;94747.44;;;0.98;100.00
23363;BME280;11853;48.080;11.960;2023-01-27T04:32:53;94747.88;;;1.05;100.00
23363;BME280;11853;48.080;11.960;2023-01-27T04:35:19;94747.06;;;1.04;100.00
23363;BME280;11853;48.080;11.960;2023-01-27T04:37:44;94752.47;;;1.01;100.00
23363;BME280;11853;48.080;11.960;2023-01-27T04:40:11;94753.41;;;1.00;100.00
23363;BME280;11853;48.080;11.960;2023-01-27T04:42:36;94755.03;;;1.16;100.00
23363;BME280;11853;48.080;11.960;2023-01-27T04:45:02;94750.78;;;1.15;100.00
23363;BME280;11853;48.080;11.960;2023-01-27T04:47:28;94753.38;;;1.15;100.00
23363;BME280;11853;48.080;11.960;2023-01-27T04:49:53;94752.44;;;1.16;100.00
23363;BME280;11853;48.080;11.960;2023-01-27T04:52:19;94751.69;;;1.13;100.00
23363;BME280;11853;48.080;11.960;2023-01-27T04:54:45;94747.41;;;1.12;100.00
23363;BME280;11853;48.080;11.960;2023-01-27T04:57:10;94747.50;;;1.11;100.00
23363;BME280;11853;48.080;11.960;2023-01-27T04:59:36;94741.22;;;1.13;100.00
23363;BME280;11853;48.080;11.960;2023-01-27T05:02:01;94748.78;;;1.18;100.00
23363;BME280;11853;48.080;11.960;2023-01-27T05:04:28;94750.88;;;1.26;100.00
23363;BME280;11853;48.080;11.960;2023-01-27T05:06:54;94748.25;;;1.13;100.00
23363;BME280;11853;48.080;11.960;2023-01-27T05:09:20;94752.72;;;1.11;100.00
23363;BME280;11853;48.080;11.960;2023-01-27T05:11:46;94754.09;;;1.17;100.00
23363;BME280;11853;48.080;11.960;2023-01-27T05:14:11;94757.69;;;1.01;100.00
23363;BME280;11853;48.080;11.960;2023-01-27T05:16:38;94755.31;;;0.84;100.00
23363;BME280;11853;48.080;11.960;2023-01-27T05:19:07;94758.84;;;0.83;100.00
23363;BME280;11853;48.080;11.960;2023-01-27T05:21:33;94753.63;;;0.83;100.00
23363;BME280;11853;48.080;11.960;2023-01-27T05:23:58;94762.56;;;0.93;100.00
23363;BME280;11853;48.080;11.960;2023-01-27T05:26:26;94769.72;;;1.04;100.00
23363;BME280;11853;48.080;11.960;2023-01-27T05:28:53;94762.34;;;1.10;100.00
23363;BME280;11853;48.080;11.960;2023-01-27T05:31:23;94772.16;;;1.07;100.00
23363;BME280;11853;48.080;11.960;2023-01-27T05:33:53;94767.94;;;1.04;100.00
23363;BME280;11853;48.080;11.960;2023-01-27T05:36:20;94774.44;;;1.11;100.00
23363;BME280;11853;48.080;11.960;2023-01-27T05:38:46;94776.22;;;1.11;100.00
23363;BME280;11853;48.080;11.960;2023-01-27T05:41:14;94782.28;;;1.11;100.00
23363;BME280;11853;48.080;11.960;2023-01-27T05:43:41;94784.25;;;1.08;100.00
23363;BME280;11853;48.080;11.960;2023-01-27T05:46:09;94793.47;;;1.13;100.00
23363;BME280;11853;48.080;11.960;2023-01-27T05:48:38;94796.84;;;1.16;100.00
23363;BME280;11853;48.080;11.960;2023-01-27T05:51:05;94793.09;;;1.20;100.00
23363;BME280;11853;48.080;11.960;2023-01-27T05:53:31;94789.75;;;1.18;100.00
23363;BME280;11853;48.080;11.960;2023-01-27T05:55:57;94793.09;;;1.20;100.00
23363;BME280;11853;48.080;11.960;2023-01-27T05:58:24;94792.16;;;1.21;100.00
23363;BME280;11853;48.080;11.960;2023-01-27T06:00:50;94806.44;;;1.15;100.00
23363;BME280;11853;48.080;11.960;2023-01-27T06:03:16;94798.50;;;1.17;100.00
23363;BME280;11853;48.080;11.960;2023-01-27T06:05:49;94799.81;;;1.24;100.00
23363;BME280;11853;48.080;11.960;2023-01-27T06:08:15;94798.66;;;1.28;100.00
23363;BME280;11853;48.080;11.960;2023-01-27T06:10:41;94799.28;;;1.31;100.00
23363;BME280;11853;48.080;11.960;2023-01-27T06:13:06;94793.44;;;1.28;100.00
23363;BME280;11853;48.080;11.960;2023-01-27T06:15:32;94794.38;;;1.27;100.00
23363;BME280;11853;48.080;11.960;2023-01-27T06:17:58;94808.75;;;1.20;100.00
23363;BME280;11853;48.080;11.960;2023-01-27T06:20:23;94808.56;;;1.23;100.00
23363;BME280;11853;48.080;11.960;2023-01-27T06:22:49;94806.91;;;1.22;100.00
23363;BME280;11853;48.080;11.960;2023-01-27T06:25:15;94805.03;;;1.24;100.00
23363;BME280;11853;48.080;11.960;2023-01-27T06:27:41;94813.59;;;1.26;100.00
23363;BME280;11853;48.080;11.960;2023-01-27T06:30:07;94813.59;;;1.26;100.00
23363;BME280;11853;48.080;11.960;2023-01-27T06:32:35;94816.75;;;1.31;100.00
23363;BME280;11853;48.080;11.960;2023-01-27T06:35:01;94820.16;;;1.19;100.00
23363;BME280;11853;48.080;11.960;2023-01-27T06:37:29;94818.81;;;1.26;100.00
23363;BME280;11853;48.080;11.960;2023-01-27T06:39:55;94823.00;;;1.28;100.00
23363;BME280;11853;48.080;11.960;2023-01-27T06:42:21;94817.06;;;1.26;100.00
23363;BME280;11853;48.080;11.960;2023-01-27T06:44:47;94806.50;;;1.28;100.00
23363;BME280;11853;48.080;11.960;2023-01-27T06:47:12;94815.22;;;1.14;100.00
23363;BME280;11853;48.080;11.960;2023-01-27T06:49:38;94816.06;;;1.15;100.00
23363;BME280;11853;48.080;11.960;2023-01-27T06:52:04;94824.81;;;1.13;100.00
23363;BME280;11853;48.080;11.960;2023-01-27T06:54:29;94819.41;;;1.17;100.00
23363;BME280;11853;48.080;11.960;2023-01-27T06:56:55;94826.53;;;1.15;100.00
23363;BME280;11853;48.080;11.960;2023-01-27T06:59:24;94825.16;;;1.36;100.00
23363;BME280;11853;48.080;11.960;2023-01-27T07:01:49;94820.16;;;1.46;100.00
23363;BME280;11853;48.080;11.960;2023-01-27T07:04:15;94822.19;;;1.55;100.00
23363;BME280;11853;48.080;11.960;2023-01-27T07:06:40;94823.84;;;1.43;100.00
23363;BME280;11853;48.080;11.960;2023-01-27T07:09:06;94817.31;;;1.36;100.00
23363;BME280;11853;48.080;11.960;2023-01-27T07:11:32;94810.22;;;1.38;100.00
23363;BME280;11853;48.080;11.960;2023-01-27T07:13:58;94806.25;;;1.45;100.00
23363;BME280;11853;48.080;11.960;2023-01-27T07:16:23;94807.09;;;1.46;100.00
23363;BME280;11853;48.080;11.960;2023-01-27T07:18:49;94808.66;;;1.48;100.00
23363;BME280;11853;48.080;11.960;2023-01-27T07:21:14;94813.06;;;1.48;100.00
23363;BME280;11853;48.080;11.960;2023-01-27T07:23:40;94818.00;;;1.52;100.00
23363;BME280;11853;48.080;11.960;2023-01-27T07:26:06;94822.47;;;1.50;100.00
23363;BME280;11853;48.080;11.960;2023-01-27T07:28:31;94825.38;;;1.46;100.00
23363;BME280;11853;48.080;11.960;2023-01-27T07:31:01;94817.66;;;1.44;100.00
23363;BME280;11853;48.080;11.960;2023-01-27T07:33:27;94829.56;;;1.48;100.00
23363;BME280;11853;48.080;11.960;2023-01-27T07:35:53;94824.34;;;1.48;100.00
23363;BME280;11853;48.080;11.960;2023-01-27T07:38:20;94829.56;;;1.48;100.00
23363;BME280;11853;48.080;11.960;2023-01-27T07:40:45;94841.72;;;1.49;100.00
23363;BME280;11853;48.080;11.960;2023-01-27T07:43:11;94841.25;;;1.43;100.00
23363;BME280;11853;48.080;11.960;2023-01-27T07:45:37;94840.44;;;1.42;100.00
23363;BME280;11853;48.080;11.960;2023-01-27T07:48:07;94845.84;;;1.39;100.00
23363;BME280;11853;48.080;11.960;2023-01-27T07:50:37;94841.06;;;1.46;100.00
23363;BME280;11853;48.080;11.960;2023-01-27T07:53:05;94842.84;;;1.45;100.00
23363;BME280;11853;48.080;11.960;2023-01-27T07:55:31;94838.56;;;1.44;100.00
23363;BME280;11853;48.080;11.960;2023-01-27T07:57:57;94854.25;;;1.44;100.00
23363;BME280;11853;48.080;11.960;2023-01-27T08:00:23;94847.34;;;1.43;100.00
23363;BME280;11853;48.080;11.960;2023-01-27T08:02:53;94850.88;;;1.42;100.00
23363;BME280;11853;48.080;11.960;2023-01-27T08:05:19;94839.03;;;1.37;100.00
23363;BME280;11853;48.080;11.960;2023-01-27T08:07:47;94841.03;;;1.33;100.00
23363;BME280;11853;48.080;11.960;2023-01-27T08:10:12;94841.22;;;1.30;100.00
23363;BME280;11853;48.080;11.960;2023-01-27T08:12:38;94833.53;;;1.41;100.00
23363;BME280;11853;48.080;11.960;2023-01-27T08:15:05;94836.69;;;1.46;100.00
23363;BME280;11853;48.080;11.960;2023-01-27T08:17:30;94846.50;;;1.43;100.00
23363;BME280;11853;48.080;11.960;2023-01-27T08:19:56;94843.59;;;1.47;100.00
23363;BME280;11853;48.080;11.960;2023-01-27T08:22:22;94844.44;;;1.48;100.00
23363;BME280;11853;48.080;11.960;2023-01-27T08:24:48;94854.03;;;1.47;100.00
23363;BME280;11853;48.080;11.960;2023-01-27T08:27:15;94855.72;;;1.48;100.00
23363;BME280;11853;48.080;11.960;2023-01-27T08:29:41;94844.53;;;1.46;100.00
23363;BME280;11853;48.080;11.960;2023-01-27T08:32:07;94851.63;;;1.44;100.00
23363;BME280;11853;48.080;11.960;2023-01-27T08:34:33;94858.63;;;1.44;100.00
23363;BME280;11853;48.080;11.960;2023-01-27T08:36:59;94865.09;;;1.38;100.00
23363;BME280;11853;48.080;11.960;2023-01-27T08:39:25;94875.75;;;1.35;100.00
23363;BME280;11853;48.080;11.960;2023-01-27T08:41:50;94866.13;;;1.35;100.00
23363;BME280;11853;48.080;11.960;2023-01-27T08:44:16;94878.56;;;1.32;100.00
23363;BME280;11853;48.080;11.960;2023-01-27T08:46:42;94866.56;;;1.42;100.00
23363;BME280;11853;48.080;11.960;2023-01-27T08:49:08;94876.94;;;1.44;100.00
23363;BME280;11853;48.080;11.960;2023-01-27T08:51:34;94871.41;;;1.48;100.00
23363;BME280;11853;48.080;11.960;2023-01-27T08:54:00;94874.56;;;1.53;100.00
23363;BME280;11853;48.080;11.960;2023-01-27T08:56:25;94876.63;;;1.48;100.00
23363;BME280;11853;48.080;11.960;2023-01-27T08:58:51;94882.25;;;1.42;100.00
23363;BME280;11853;48.080;11.960;2023-01-27T09:01:18;94887.53;;;1.55;100.00
23363;BME280;11853;48.080;11.960;2023-01-27T09:03:44;94873.53;;;1.56;100.00
23363;BME280;11853;48.080;11.960;2023-01-27T09:06:11;94880.44;;;1.57;100.00
23363;BME280;11853;48.080;11.960;2023-01-27T09:08:38;94871.34;;;1.63;100.00
23363;BME280;11853;48.080;11.960;2023-01-27T09:11:13;94871.47;;;1.61;100.00
23363;BME280;11853;48.080;11.960;2023-01-27T09:13:39;94875.31;;;1.55;100.00
23363;BME280;11853;48.080;11.960;2023-01-27T09:16:05;94877.81;;;1.57;100.00
23363;BME280;11853;48.080;11.960;2023-01-27T09:18:31;94879.19;;;1.63;100.00
23363;BME280;11853;48.080;11.960;2023-01-27T09:20:57;94865.50;;;1.59;100.00
23363;BME280;11853;48.080;11.960;2023-01-27T09:23:22;94880.78;;;1.65;100.00
23363;BME280;11853;48.080;11.960;2023-01-27T09:25:48;94876.31;;;1.67;100.00
23363;BME280;11853;48.080;11.960;2023-01-27T09:28:14;94897.66;;;1.74;100.00
23363;BME280;11853;48.080;11.960;2023-01-27T09:30:44;94887.00;;;1.77;100.00
23363;BME280;11853;48.080;11.960;2023-01-27T09:33:11;94889.13;;;1.85;100.00
23363;BME280;11853;48.080;11.960;2023-01-27T09:35:45;94886.44;;;1.86;100.00
23363;BME280;11853;48.080;11.960;2023-01-27T09:38:14;94886.22;;;1.89;100.00
23363;BME280;11853;48.080;11.960;2023-01-27T09:50:11;94897.94;;;1.96;100.00
23363;BME280;11853;48.080;11.960;2023-01-27T10:06:29;94912.59;;;1.99;100.00
23363;BME280;11853;48.080;11.960;2023-01-27T10:12:20;94895.88;;;2.01;100.00
23363;BME280;11853;48.080;11.960;2023-01-27T10:15:05;94894.38;;;1.97;100.00
23363;BME280;11853;48.080;11.960;2023-01-27T10:17:59;94894.84;;;2.04;100.00
23363;BME280;11853;48.080;11.960;2023-01-27T10:20:35;94890.16;;;2.09;100.00
23363;BME280;11853;48.080;11.960;2023-01-27T10:26:02;94905.31;;;2.04;100.00
23363;BME280;11853;48.080;11.960;2023-01-27T10:28:33;94904.91;;;2.10;100.00
23363;BME280;11853;48.080;11.960;2023-01-27T10:31:08;94903.88;;;2.13;100.00
23363;BME280;11853;48.080;11.960;2023-01-27T10:33:43;94896.84;;;2.13;100.00
23363;BME280;11853;48.080;11.960;2023-01-27T10:36:25;94896.34;;;2.21;100.00
23363;BME280;11853;48.080;11.960;2023-01-27T10:39:19;94889.84;;;2.14;100.00
23363;BME280;11853;48.080;11.960;2023-01-27T10:42:33;94901.06;;;2.16;100.00
23363;BME280;11853;48.080;11.960;2023-01-27T10:50:31;94894.88;;;2.17;100.00
23363;BME280;11853;48.080;11.960;2023-01-27T10:53:13;94898.78;;;2.24;100.00
23363;BME280;11853;48.080;11.960;2023-01-27T10:55:45;94895.94;;;2.27;100.00
23363;BME280;11853;48.080;11.960;2023-01-27T11:00:56;94895.84;;;2.29;100.00
23363;BME280;11853;48.080;11.960;2023-01-27T11:03:43;94900.66;;;2.22;100.00
23363;BME280;11853;48.080;11.960;2023-01-27T11:06:34;94900.34;;;2.27;100.00
23363;BME280;11853;48.080;11.960;2023-01-27T11:09:17;94895.41;;;2.22;100.00
23363;BME280;11853;48.080;11.960;2023-01-27T11:11:48;94890.66;;;2.14;100.00
23363;BME280;11853;48.080;11.960;2023-01-27T11:14:30;94891.81;;;2.10;100.00
23363;BME280;11853;48.080;11.960;2023-01-27T11:17:07;94888.16;;;2.13;100.00
23363;BME280;11853;48.080;11.960;2023-01-27T11:22:27;94893.41;;;2.13;100.00
23363;BME280;11853;48.080;11.960;2023-01-27T11:25:05;94899.88;;;2.07;100.00
23363;BME280;11853;48.080;11.960;2023-01-27T11:30:20;94903.53;;;2.05;100.00
23363;BME280;11853;48.080;11.960;2023-01-27T11:35:36;94896.69;;;1.89;100.00
23363;BME280;11853;48.080;11.960;2023-01-27T11:38:02;94896.28;;;1.95;100.00
23363;BME280;11853;48.080;11.960;2023-01-27T11:40:32;94890.31;;;1.93;100.00
23363;BME280;11853;48.080;11.960;2023-01-27T11:43:00;94892.44;;;2.01;100.00
23363;BME280;11853;48.080;11.960;2023-01-27T11:45:30;94890.44;;;2.05;100.00
23363;BME280;11853;48.080;11.960;2023-01-27T11:47:59;94887.75;;;2.06;100.00
23363;BME280;11853;48.080;11.960;2023-01-27T11:50:31;94884.59;;;2.14;100.00
23363;BME280;11853;48.080;11.960;2023-01-27T11:55:49;94878.13;;;2.19;100.00
23363;BME280;11853;48.080;11.960;2023-01-27T11:58:31;94882.72;;;2.16;100.00
23363;BME280;11853;48.080;11.960;2023-01-27T12:01:02;94879.06;;;2.18;100.00
23363;BME280;11853;48.080;11.960;2023-01-27T12:06:15;94880.06;;;2.03;100.00
23363;BME280;11853;48.080;11.960;2023-01-27T12:08:45;94880.59;;;2.08;100.00
23363;BME280;11853;48.080;11.960;2023-01-27T12:11:21;94890.88;;;2.11;100.00
23363;BME280;11853;48.080;11.960;2023-01-27T12:13:53;94881.91;;;2.15;100.00
23363;BME280;11853;48.080;11.960;2023-01-27T12:16:21;94884.19;;;2.20;100.00
23363;BME280;11853;48.080;11.960;2023-01-27T12:18:55;94886.25;;;2.02;100.00
23363;BME280;11853;48.080;11.960;2023-01-27T12:21:34;94884.88;;;1.96;100.00
23363;BME280;11853;48.080;11.960;2023-01-27T12:24:04;94875.56;;;1.92;100.00
23363;BME280;11853;48.080;11.960;2023-01-27T12:26:39;94880.19;;;2.01;100.00
23363;BME280;11853;48.080;11.960;2023-01-27T12:29:56;94878.19;;;2.05;100.00
23363;BME280;11853;48.080;11.960;2023-01-27T12:35:01;94869.59;;;2.03;100.00
23363;BME280;11853;48.080;11.960;2023-01-27T12:37:32;94869.53;;;2.05;100.00
23363;BME280;11853;48.080;11.960;2023-01-27T12:40:05;94875.38;;;2.08;100.00
23363;BME280;11853;48.080;11.960;2023-01-27T12:42:41;94854.66;;;2.05;100.00
23363;BME280;11853;48.080;11.960;2023-01-27T12:45:43;94857.19;;;2.07;100.00
23363;BME280;11853;48.080;11.960;2023-01-27T12:48:23;94867.25;;;2.13;100.00
23363;BME280;11853;48.080;11.960;2023-01-27T12:50:54;94863.72;;;2.27;100.00
23363;BME280;11853;48.080;11.960;2023-01-27T12:53:25;94862.75;;;2.28;100.00
23363;BME280;11853;48.080;11.960;2023-01-27T12:56:17;94858.03;;;2.20;100.00
23363;BME280;11853;48.080;11.960;2023-01-27T13:01:34;94852.38;;;2.26;100.00
23363;BME280;11853;48.080;11.960;2023-01-27T13:04:19;94855.75;;;2.28;100.00
23363;BME280;11853;48.080;11.960;2023-01-27T13:06:56;94844.66;;;2.37;100.00
23363;BME280;11853;48.080;11.960;2023-01-27T13:12:03;94853.13;;;2.28;100.00
23363;BME280;11853;48.080;11.960;2023-01-27T13:14:41;94854.16;;;2.13;100.00
23363;BME280;11853;48.080;11.960;2023-01-27T13:19:57;94853.66;;;2.33;100.00
23363;BME280;11853;48.080;11.960;2023-01-27T13:22:25;94861.59;;;2.32;100.00
23363;BME280;11853;48.080;11.960;2023-01-27T13:24:58;94857.84;;;2.36;100.00
23363;BME280;11853;48.080;11.960;2023-01-27T13:27:33;94856.50;;;2.30;100.00
23363;BME280;11853;48.080;11.960;2023-01-27T13:32:56;94860.16;;;2.40;100.00
23363;BME280;11853;48.080;11.960;2023-01-27T13:35:36;94869.06;;;2.51;98.53
23363;BME280;11853;48.080;11.960;2023-01-27T13:38:18;94862.06;;;2.38;99.18
23363;BME280;11853;48.080;11.960;2023-01-27T13:40:46;94871.69;;;2.38;100.00
23363;BME280;11853;48.080;11.960;2023-01-27T13:43:25;94875.13;;;2.38;99.62
23363;BME280;11853;48.080;11.960;2023-01-27T13:46:01;94870.09;;;2.35;99.91
23363;BME280;11853;48.080;11.960;2023-01-27T13:48:37;94871.16;;;2.33;100.00
23363;BME280;11853;48.080;11.960;2023-01-27T13:51:08;94871.03;;;2.34;99.44
23363;BME280;11853;48.080;11.960;2023-01-27T13:53:36;94868.09;;;2.26;100.00
23363;BME280;11853;48.080;11.960;2023-01-27T13:59:11;94866.94;;;2.30;100.00
23363;BME280;11853;48.080;11.960;2023-01-27T14:02:05;94875.44;;;2.21;100.00
23363;BME280;11853;48.080;11.960;2023-01-27T14:07:27;94874.41;;;2.36;100.00
23363;BME280;11853;48.080;11.960;2023-01-27T14:10:20;94878.56;;;2.26;100.00
23363;BME280;11853;48.080;11.960;2023-01-27T14:15:45;94871.56;;;2.39;99.67
23363;BME280;11853;48.080;11.960;2023-01-27T14:18:20;94875.69;;;2.43;100.00
23363;BME280;11853;48.080;11.960;2023-01-27T14:23:52;94881.84;;;2.42;100.00
23363;BME280;11853;48.080;11.960;2023-01-27T14:29:29;94884.25;;;2.45;99.46